Time;durP1;ratioP1;P1;durP2;ratioP2;P2;SDS_P1;SDS_P2;PMS_P1;PMS_P2;Temp;Humidity;BMP_temperature;BMP_pressure;BME280_temperature;BME280_humidity;BME280_pressure;Samples;Min_cycle;Max_cycle;Signal;HPM_P1;HPM_P2
2022/08/26 06:10:21;;;;;;;;;13.50;9.50;;;;;;;;5144750;27;21544;-82
2022/08/26 06:12:47;;;;;;;;;9.50;9.00;;;;;;;;5128861;27;23295;-81
2022/08/26 06:15:12;;;;;;;;;8.50;8.00;;;;;;;;5139398;27;21424;-81
2022/08/26 06:17:37;;;;;;;;;9.50;8.75;;;;;;;;5142621;27;8804;-79
2022/08/26 06:20:03;;;;;;;;;10.75;8.50;;;;;;;;5143722;27;11287;-76
2022/08/26 06:27:55;;;;;;;;;10.50;9.75;;;;;;;;5141814;27;11330;-78
2022/08/26 06:30:21;;;;;;;;;14.75;11.00;;;;;;;;5144275;27;21536;-79
2022/08/26 06:32:46;;;;;;;;;8.75;8.75;;;;;;;;5144478;27;23150;-85
2022/08/26 06:35:11;;;;;;;;;7.50;7.50;;;;;;;;5144276;27;22113;-80
2022/08/26 06:37:37;;;;;;;;;10.75;10.50;;;;;;;;5144201;27;11278;-82
2022/08/26 06:40:03;;;;;;;;;9.25;9.25;;;;;;;;5127190;27;24446;-82
2022/08/26 06:42:28;;;;;;;;;11.50;10.00;;;;;;;;5144454;27;22303;-87
2022/08/26 06:44:53;;;;;;;;;9.00;8.00;;;;;;;;5145092;27;22366;-83
2022/08/26 06:47:19;;;;;;;;;6.50;6.50;;;;;;;;5145896;27;22431;-77
2022/08/26 06:49:44;;;;;;;;;10.25;9.00;;;;;;;;5143758;27;11479;-89
2022/08/26 06:52:10;;;;;;;;;10.75;9.25;;;;;;;;5140717;27;21429;-78
2022/08/26 06:54:37;;;;;;;;;9.25;8.00;;;;;;;;5144426;27;8798;-77
2022/08/26 06:57:02;;;;;;;;;9.75;9.00;;;;;;;;5145557;27;22640;-77
2022/08/26 06:59:29;;;;;;;;;8.25;7.00;;;;;;;;5146492;27;9511;-77
2022/08/26 07:01:55;;;;;;;;;61.75;45.75;;;;;;;;5128284;27;9798;-76
2022/08/26 07:04:20;;;;;;;;;10.50;9.50;;;;;;;;5142530;27;22872;-80
2022/08/26 07:06:48;;;;;;;;;16.00;16.00;;;;;;;;5144453;27;22731;-79
2022/08/26 07:09:13;;;;;;;;;9.50;8.50;;;;;;;;5142799;27;21695;-79
2022/08/26 07:11:38;;;;;;;;;10.00;8.25;;;;;;;;5142700;27;22178;-81
2022/08/26 07:14:04;;;;;;;;;9.50;7.50;;;;;;;;5142646;27;22007;-75
2022/08/26 07:16:30;;;;;;;;;17.50;15.75;;;;;;;;5125348;27;21833;-80
2022/08/26 07:18:56;;;;;;;;;15.75;15.75;;;;;;;;5131038;27;22900;-77
2022/08/26 07:21:22;;;;;;;;;18.50;16.25;;;;;;;;5112597;27;10865;-78
2022/08/26 07:23:51;;;;;;;;;18.75;15.25;;;;;;;;5129242;27;10377;-75
2022/08/26 07:26:21;;;;;;;;;13.50;13.00;;;;;;;;5130978;27;9956;-77
2022/08/26 07:28:47;;;;;;;;;11.75;11.00;;;;;;;;5130221;27;11504;-85
2022/08/26 07:31:14;;;;;;;;;13.50;12.00;;;;;;;;5125163;27;10706;-78
2022/08/26 07:33:39;;;;;;;;;14.50;13.25;;;;;;;;5139838;27;10660;-77
2022/08/26 07:36:06;;;;;;;;;14.25;14.25;;;;;;;;5141135;27;11754;-79
2022/08/26 07:38:32;;;;;;;;;19.00;14.25;;;;;;;;5141527;27;10792;-83
2022/08/26 07:40:57;;;;;;;;;14.50;13.75;;;;;;;;5139048;27;9584;-77
2022/08/26 07:43:22;;;;;;;;;14.50;13.50;;;;;;;;5139344;27;10331;-77
2022/08/26 07:45:48;;;;;;;;;14.75;13.00;;;;;;;;5141583;27;8817;-76
2022/08/26 07:48:14;;;;;;;;;16.00;16.00;;;;;;;;5141043;27;8870;-80
2022/08/26 07:50:40;;;;;;;;;17.75;15.75;;;;;;;;5138200;27;10962;-78
2022/08/26 07:53:05;;;;;;;;;15.50;14.00;;;;;;;;5141658;27;11904;-78
2022/08/26 07:55:31;;;;;;;;;13.00;13.00;;;;;;;;5141119;27;11698;-79
2022/08/26 07:57:56;;;;;;;;;15.67;14.00;;;;;;;;5141460;27;10393;-78
2022/08/26 08:00:21;;;;;;;;;12.00;11.00;;;;;;;;5137902;27;10455;-78
2022/08/26 08:02:47;;;;;;;;;13.33;13.33;;;;;;;;5120289;27;10312;-80
2022/08/26 08:05:15;;;;;;;;;12.00;11.67;;;;;;;;5119390;28;11854;-79
2022/08/26 08:07:40;;;;;;;;;14.75;13.25;;;;;;;;5120576;28;11605;-78
2022/08/26 08:10:06;;;;;;;;;15.67;11.33;;;;;;;;5120763;28;11640;-79
2022/08/26 08:12:32;;;;;;;;;8.33;8.33;;;;;;;;5101952;28;10349;-78
2022/08/26 08:14:57;;;;;;;;;11.67;10.67;;;;;;;;5120404;28;24140;-78
2022/08/26 08:17:22;;;;;;;;;13.33;12.00;;;;;;;;5119788;28;22489;-79
2022/08/26 08:19:48;;;;;;;;;10.00;9.67;;;;;;;;5120880;28;11492;-79
2022/08/26 08:22:15;;;;;;;;;7.67;7.67;;;;;;;;5119899;28;21385;-78
2022/08/26 08:24:41;;;;;;;;;10.00;10.00;;;;;;;;5102230;28;21805;-78
2022/08/26 08:27:07;;;;;;;;;13.50;12.50;;;;;;;;5120057;28;22652;-77
2022/08/26 08:29:35;;;;;;;;;22.00;14.75;;;;;;;;5118815;27;12568;-78
2022/08/26 08:32:01;;;;;;;;;16.00;10.75;;;;;;;;5120342;28;13386;-79
2022/08/26 08:34:27;;;;;;;;;17.25;12.50;;;;;;;;5120491;28;10950;-86
2022/08/26 08:36:53;;;;;;;;;9.50;8.00;;;;;;;;5119683;28;11436;-78
2022/08/26 08:39:18;;;;;;;;;11.67;10.33;;;;;;;;5119964;28;23309;-78
2022/08/26 08:42:03;;;;;;;;;13.00;10.67;;;;;;;;5101180;28;22866;-77
2022/08/26 08:44:29;;;;;;;;;10.00;10.00;;;;;;;;5119623;28;12777;-78
2022/08/26 08:46:57;;;;;;;;;10.33;10.33;;;;;;;;5117905;28;11952;-77
2022/08/26 08:49:24;;;;;;;;;10.75;10.00;;;;;;;;5118728;27;8819;-75
2022/08/26 08:52:00;;;;;;;;;8.50;8.25;;;;;;;;5120060;28;8862;-76
2022/08/26 08:54:26;;;;;;;;;11.50;11.50;;;;;;;;5100775;28;24899;-76
2022/08/26 08:56:57;;;;;;;;;11.50;11.25;;;;;;;;5119939;27;22468;-77
2022/08/26 08:59:24;;;;;;;;;7.50;7.50;;;;;;;;5139845;27;8778;-76
2022/08/26 09:01:52;;;;;;;;;11.80;9.80;;;;;;;;5139904;27;22453;-76
2022/08/26 09:04:20;;;;;;;;;9.00;8.80;;;;;;;;5139531;27;21968;-76
2022/08/26 09:06:47;;;;;;;;;9.60;9.00;;;;;;;;5139921;27;21514;-76
2022/08/26 09:09:20;;;;;;;;;13.20;10.40;;;;;;;;5140530;27;10357;-77
2022/08/26 09:11:45;;;;;;;;;10.20;8.60;;;;;;;;5140226;27;22658;-76
2022/08/26 09:14:10;;;;;;;;;10.00;8.25;;;;;;;;5140517;27;21881;-79
2022/08/26 09:16:39;;;;;;;;;10.75;9.00;;;;;;;;5139777;27;8798;-78
2022/08/26 09:19:25;;;;;;;;;8.80;8.20;;;;;;;;5140171;27;11634;-77
2022/08/26 09:21:54;;;;;;;;;8.40;8.00;;;;;;;;5120384;27;23602;-77
2022/08/26 09:24:19;;;;;;;;;11.00;8.00;;;;;;;;5140287;27;9585;-77
2022/08/26 09:26:46;;;;;;;;;9.75;9.75;;;;;;;;5137533;27;16913;-77
2022/08/26 09:29:33;;;;;;;;;8.80;8.80;;;;;;;;5138485;27;21719;-78
2022/08/26 09:32:18;;;;;;;;;8.80;8.80;;;;;;;;5140109;27;8879;-78
2022/08/26 09:35:00;;;;;;;;;10.40;8.60;;;;;;;;5140996;27;8883;-78
2022/08/26 09:37:51;;;;;;;;;9.80;8.60;;;;;;;;5138984;27;23269;-78
2022/08/26 09:40:31;;;;;;;;;7.60;7.20;;;;;;;;5134333;27;16485;-78
2022/08/26 09:43:15;;;;;;;;;8.40;8.00;;;;;;;;5140013;27;11911;-73
2022/08/26 09:45:45;;;;;;;;;8.00;8.00;;;;;;;;5140130;27;11943;-84
2022/08/26 09:48:22;;;;;;;;;8.20;7.00;;;;;;;;5109914;28;10710;-74
2022/08/26 09:50:52;;;;;;;;;9.00;8.00;;;;;;;;5119145;28;9518;-75
2022/08/26 09:53:21;;;;;;;;;7.40;7.40;;;;;;;;5100357;28;12266;-73
2022/08/26 09:55:48;;;;;;;;;9.40;8.40;;;;;;;;5119710;28;11692;-73
2022/08/26 09:58:33;;;;;;;;;9.80;9.60;;;;;;;;5118433;28;8757;-73
2022/08/26 10:01:02;;;;;;;;;8.00;7.40;;;;;;;;5123020;27;12369;-75
2022/08/26 10:03:31;;;;;;;;;9.20;8.00;;;;;;;;5125841;27;12924;-74
2022/08/26 10:06:01;;;;;;;;;9.20;8.20;;;;;;;;5125996;27;11640;-74
2022/08/26 10:08:37;;;;;;;;;6.60;6.00;;;;;;;;5127534;27;8767;-73
2022/08/26 10:11:06;;;;;;;;;8.00;8.00;;;;;;;;5110050;27;13909;-74
2022/08/26 10:13:31;;;;;;;;;10.60;9.60;;;;;;;;5128372;27;10341;-75
2022/08/26 10:16:07;;;;;;;;;12.75;10.50;;;;;;;;5127006;27;22892;-72
2022/08/26 10:18:35;;;;;;;;;10.00;9.60;;;;;;;;5118095;27;21487;-73
2022/08/26 10:21:16;;;;;;;;;7.80;7.80;;;;;;;;5123264;27;21638;-73
2022/08/26 10:23:44;;;;;;;;;6.20;6.20;;;;;;;;5129149;27;21403;-72
2022/08/26 10:26:15;;;;;;;;;7.20;6.00;;;;;;;;5127272;27;11405;-72
2022/08/26 10:28:46;;;;;;;;;12.60;10.20;;;;;;;;5127604;27;11605;-73
2022/08/26 10:31:26;;;;;;;;;12.00;11.00;;;;;;;;5132474;27;22316;-77
2022/08/26 10:33:52;;;;;;;;;10.80;9.60;;;;;;;;5139118;27;10593;-74
2022/08/26 10:39:05;;;;;;;;;10.00;9.40;;;;;;;;5137579;27;21500;-73
2022/08/26 10:41:35;;;;;;;;;10.40;9.00;;;;;;;;5133466;27;21471;-73
2022/08/26 10:44:01;;;;;;;;;11.00;10.60;;;;;;;;5116465;27;10227;-72
2022/08/26 10:46:35;;;;;;;;;6.80;6.00;;;;;;;;5126698;27;21652;-73
2022/08/26 10:49:03;;;;;;;;;9.00;7.75;;;;;;;;5128510;27;22338;-73
2022/08/26 10:51:35;;;;;;;;;9.00;9.00;;;;;;;;5126798;27;11564;-73
2022/08/26 10:54:10;;;;;;;;;9.75;9.75;;;;;;;;5129912;27;9046;-75
2022/08/26 10:56:38;;;;;;;;;10.75;10.75;;;;;;;;5130187;27;8914;-74
2022/08/26 10:59:08;;;;;;;;;8.00;8.00;;;;;;;;5127644;27;22574;-76
2022/08/26 11:01:41;;;;;;;;;7.00;7.00;;;;;;;;5129594;27;22343;-76
2022/08/26 11:04:07;;;;;;;;;7.25;7.25;;;;;;;;5130247;27;8871;-76
2022/08/26 11:06:33;;;;;;;;;7.00;6.67;;;;;;;;5131538;27;8930;-74
2022/08/26 11:08:58;;;;;;;;;8.00;8.00;;;;;;;;5117037;27;10321;-74
2022/08/26 11:11:53;;;;;;;;;6.33;5.67;;;;;;;;5111238;27;14490;-73
2022/08/26 11:14:18;;;;;;;;;7.00;6.50;;;;;;;;5020662;28;11514;-74
2022/08/26 11:16:50;;;;;;;;;9.33;9.00;;;;;;;;5018177;28;11350;-73
2022/08/26 11:19:33;;;;;;;;;9.75;8.75;;;;;;;;5017839;28;11392;-74
2022/08/26 11:22:04;;;;;;;;;11.00;7.25;;;;;;;;5019927;28;12600;-76
2022/08/26 11:24:44;;;;;;;;;9.00;7.75;;;;;;;;5067188;27;21542;-77
2022/08/26 11:27:29;;;;;;;;;8.25;8.25;;;;;;;;5129769;27;21528;-86
2022/08/26 11:29:54;;;;;;;;;11.00;10.00;;;;;;;;5107112;27;12879;-81
2022/08/26 11:32:25;;;;;;;;;9.67;8.67;;;;;;;;5126100;27;22315;-81
2022/08/26 11:34:52;;;;;;;;;10.00;10.00;;;;;;;;5128776;27;22512;-81
2022/08/26 11:37:20;;;;;;;;;7.75;7.00;;;;;;;;5131348;27;22307;-81
2022/08/26 11:39:50;;;;;;;;;9.25;8.00;;;;;;;;5129336;27;23798;-82
2022/08/26 11:42:31;;;;;;;;;7.75;7.75;;;;;;;;5138402;27;9656;-77
2022/08/26 11:44:58;;;;;;;;;9.25;9.00;;;;;;;;5129847;27;11407;-91
2022/08/26 11:47:28;;;;;;;;;8.50;8.50;;;;;;;;5115897;27;13330;-84
2022/08/26 11:50:14;;;;;;;;;9.25;8.25;;;;;;;;5129810;27;11383;-84
2022/08/26 11:52:39;;;;;;;;;8.75;7.50;;;;;;;;5109594;27;13600;-85
2022/08/26 11:55:06;;;;;;;;;7.00;7.00;;;;;;;;5113209;27;13754;-86
2022/08/26 11:57:33;;;;;;;;;6.75;6.75;;;;;;;;5130855;27;11547;-85
2022/08/26 11:59:59;;;;;;;;;7.75;7.75;;;;;;;;5123859;27;11582;-86
2022/08/26 12:02:26;;;;;;;;;8.25;7.00;;;;;;;;5134721;27;8881;-85
2022/08/26 12:04:52;;;;;;;;;6.50;6.50;;;;;;;;5131109;27;11577;-85
2022/08/26 12:07:21;;;;;;;;;11.75;10.00;;;;;;;;5113353;27;15368;-85
2022/08/26 12:09:53;;;;;;;;;8.75;8.75;;;;;;;;5115036;27;24402;-84
2022/08/26 12:12:29;;;;;;;;;10.00;7.75;;;;;;;;5140929;27;22497;-84
2022/08/26 12:15:05;;;;;;;;;7.00;5.00;;;;;;;;5126018;27;21614;-85
2022/08/26 12:17:31;;;;;;;;;7.25;7.00;;;;;;;;5100442;28;25550;-87
2022/08/26 12:19:56;;;;;;;;;8.67;7.33;;;;;;;;5102395;28;9959;-87
2022/08/26 12:22:24;;;;;;;;;8.00;8.00;;;;;;;;5120129;28;11327;-87
2022/08/26 12:24:54;;;;;;;;;5.75;5.75;;;;;;;;5118734;28;10566;-85
2022/08/26 12:27:19;;;;;;;;;9.00;8.50;;;;;;;;5131205;27;11938;-88
2022/08/26 12:29:58;;;;;;;;;9.67;7.33;;;;;;;;5141116;27;11527;-86
2022/08/26 12:32:23;;;;;;;;;7.50;7.50;;;;;;;;5121805;27;12755;-81
2022/08/26 12:34:49;;;;;;;;;9.00;7.00;;;;;;;;5140883;27;11293;-83
2022/08/26 12:37:14;;;;;;;;;7.00;7.00;;;;;;;;5140512;27;11620;-87
2022/08/26 12:39:41;;;;;;;;;11.00;8.67;;;;;;;;5141130;27;8790;-88
2022/08/26 12:42:14;;;;;;;;;11.75;9.00;;;;;;;;5140429;27;21554;-85
2022/08/26 12:44:45;;;;;;;;;7.75;7.75;;;;;;;;5139400;27;10449;-83
2022/08/26 12:47:24;;;;;;;;;8.75;8.50;;;;;;;;5130266;27;22951;-82
2022/08/26 12:49:58;;;;;;;;;7.75;7.50;;;;;;;;5128870;27;11978;-81
2022/08/26 12:52:30;;;;;;;;;10.00;10.00;;;;;;;;5127105;27;8819;-77
2022/08/26 12:55:01;;;;;;;;;13.25;11.75;;;;;;;;5126133;27;23818;-83
2022/08/26 12:57:31;;;;;;;;;7.75;6.50;;;;;;;;5119843;27;12348;-75
2022/08/26 13:00:15;;;;;;;;;8.00;8.00;;;;;;;;5119295;28;22609;-76
2022/08/26 13:02:41;;;;;;;;;19.50;16.25;;;;;;;;5121629;27;11528;-78
2022/08/26 13:05:06;;;;;;;;;13.67;11.67;;;;;;;;5135213;27;23643;-76
2022/08/26 13:07:31;;;;;;;;;8.00;7.67;;;;;;;;5138140;27;11557;-76
2022/08/26 13:09:58;;;;;;;;;17.00;15.33;;;;;;;;5138739;27;22250;-78
2022/08/26 13:12:28;;;;;;;;;11.25;9.50;;;;;;;;5138916;27;22330;-76
2022/08/26 13:14:54;;;;;;;;;8.75;8.50;;;;;;;;5126540;27;22825;-74
2022/08/26 13:17:19;;;;;;;;;9.33;9.33;;;;;;;;5138937;27;21634;-90
2022/08/26 13:19:45;;;;;;;;;12.33;10.67;;;;;;;;5139427;27;11553;-84
2022/08/26 13:22:11;;;;;;;;;11.00;9.00;;;;;;;;5136762;27;22184;-78
2022/08/26 13:24:39;;;;;;;;;12.00;11.25;;;;;;;;5123916;27;21701;-78
2022/08/26 13:27:05;;;;;;;;;16.50;15.25;;;;;;;;5140049;27;22894;-78
2022/08/26 13:29:31;;;;;;;;;20.00;19.50;;;;;;;;5139572;27;11997;-77
2022/08/26 13:31:56;;;;;;;;;12.00;11.00;;;;;;;;5139431;27;14352;-79
2022/08/26 13:34:22;;;;;;;;;13.67;13.67;;;;;;;;5103141;28;13624;-78
2022/08/26 13:36:48;;;;;;;;;9.33;9.00;;;;;;;;5118453;28;11397;-79
2022/08/26 13:39:14;;;;;;;;;9.00;8.00;;;;;;;;5119037;28;23021;-77
2022/08/26 13:41:39;;;;;;;;;8.00;8.00;;;;;;;;5119095;28;9651;-74
2022/08/26 13:44:05;;;;;;;;;16.67;16.67;;;;;;;;5130015;27;8906;-74
2022/08/26 13:46:30;;;;;;;;;19.67;19.33;;;;;;;;5139112;27;23871;-76
2022/08/26 13:48:56;;;;;;;;;12.00;12.00;;;;;;;;5137012;27;12037;-77
2022/08/26 13:51:22;;;;;;;;;10.50;8.00;;;;;;;;5119184;28;12609;-74
2022/08/26 13:53:48;;;;;;;;;16.00;16.00;;;;;;;;5116603;27;21562;-79
2022/08/26 13:56:14;;;;;;;;;7.75;7.25;;;;;;;;5138190;27;22142;-77
2022/08/26 13:58:39;;;;;;;;;12.00;12.00;;;;;;;;5139005;27;22613;-75
2022/08/26 14:01:04;;;;;;;;;10.00;8.00;;;;;;;;5139838;27;23756;-75
2022/08/26 14:03:29;;;;;;;;;9.33;9.00;;;;;;;;5138916;27;21463;-76
2022/08/26 14:05:55;;;;;;;;;8.67;8.67;;;;;;;;5137201;27;21519;-75
2022/08/26 14:08:21;;;;;;;;;9.00;8.00;;;;;;;;5140104;27;11350;-86
2022/08/26 14:10:46;;;;;;;;;7.33;5.33;;;;;;;;5120894;27;13393;-78
2022/08/26 14:13:12;;;;;;;;;7.67;7.00;;;;;;;;5116050;28;14893;-79
2022/08/26 14:15:37;;;;;;;;;10.00;9.00;;;;;;;;5098008;27;12420;-79
2022/08/26 14:18:03;;;;;;;;;10.00;9.00;;;;;;;;5129283;27;21410;-77
2022/08/26 14:20:30;;;;;;;;;9.25;8.50;;;;;;;;5130621;27;8792;-80
2022/08/26 14:22:55;;;;;;;;;8.50;8.25;;;;;;;;5124101;27;21533;-82
2022/08/26 14:25:21;;;;;;;;;3.67;3.67;;;;;;;;5124030;27;11885;-78
2022/08/26 14:27:47;;;;;;;;;11.67;11.00;;;;;;;;5127754;27;11304;-81
2022/08/26 14:30:13;;;;;;;;;9.00;8.50;;;;;;;;5129064;27;22596;-82
2022/08/26 14:32:41;;;;;;;;;7.00;7.00;;;;;;;;5129442;27;22190;-78
2022/08/26 14:35:15;;;;;;;;;8.25;8.25;;;;;;;;5126032;27;11423;-84
2022/08/26 14:37:41;;;;;;;;;14.00;11.00;;;;;;;;5130802;27;11393;-87
2022/08/26 14:40:07;;;;;;;;;10.67;9.33;;;;;;;;5131522;27;22231;-86
2022/08/26 14:42:32;;;;;;;;;8.00;6.33;;;;;;;;5129332;27;21480;-85
2022/08/26 14:45:06;;;;;;;;;6.00;6.00;;;;;;;;5131034;27;21352;-87
2022/08/26 14:47:31;;;;;;;;;6.00;6.00;;;;;;;;5112624;27;11755;-88
2022/08/26 14:49:57;;;;;;;;;8.00;8.00;;;;;;;;5130834;27;8799;-85
2022/08/26 14:52:22;;;;;;;;;8.33;7.33;;;;;;;;5133396;27;8786;-80
2022/08/26 14:54:48;;;;;;;;;8.00;8.00;;;;;;;;5130386;27;10469;-77
2022/08/26 14:57:13;;;;;;;;;10.33;9.33;;;;;;;;5131488;27;10371;-83
2022/08/26 14:59:40;;;;;;;;;8.00;7.00;;;;;;;;5132272;27;21321;-82
2022/08/26 15:02:06;;;;;;;;;7.75;6.75;;;;;;;;5131786;27;21840;-83
2022/08/26 15:04:31;;;;;;;;;8.00;8.00;;;;;;;;5141457;27;11657;-80
2022/08/26 15:06:57;;;;;;;;;9.00;7.33;;;;;;;;5143016;27;11346;-83
2022/08/26 15:09:23;;;;;;;;;7.67;7.67;;;;;;;;5136262;27;11691;-82
2022/08/26 15:11:49;;;;;;;;;10.00;7.67;;;;;;;;5123034;28;12453;-83
2022/08/26 15:14:14;;;;;;;;;8.00;7.00;;;;;;;;5121967;28;16397;-83
2022/08/26 15:16:40;;;;;;;;;7.00;6.00;;;;;;;;5120978;28;21628;-83
2022/08/26 15:19:05;;;;;;;;;8.67;7.67;;;;;;;;5122683;28;9493;-82
2022/08/26 15:21:31;;;;;;;;;9.00;9.00;;;;;;;;5121971;28;12447;-83
2022/08/26 15:23:58;;;;;;;;;8.50;8.00;;;;;;;;5122905;28;11521;-82
2022/08/26 15:26:23;;;;;;;;;12.75;10.00;;;;;;;;5122119;28;10904;-82
2022/08/26 15:28:49;;;;;;;;;9.67;8.67;;;;;;;;5103403;28;25724;-83
2022/08/26 15:31:14;;;;;;;;;12.00;9.00;;;;;;;;5122163;28;23783;-83
2022/08/26 15:33:40;;;;;;;;;8.67;7.67;;;;;;;;5121696;28;21474;-83
2022/08/26 15:36:06;;;;;;;;;8.67;8.00;;;;;;;;5121272;28;21504;-83
2022/08/26 15:38:32;;;;;;;;;7.25;7.25;;;;;;;;5122712;28;8872;-83
2022/08/26 15:40:58;;;;;;;;;9.75;9.75;;;;;;;;5122629;28;11934;-82
2022/08/26 15:43:25;;;;;;;;;11.67;10.00;;;;;;;;5122060;28;10352;-83
2022/08/26 15:45:50;;;;;;;;;8.75;8.75;;;;;;;;5120979;28;22839;-83
2022/08/26 15:48:16;;;;;;;;;7.67;7.67;;;;;;;;5121132;28;22819;-83
2022/08/26 15:50:52;;;;;;;;;8.00;8.00;;;;;;;;5122072;28;11816;-83
2022/08/26 15:53:17;;;;;;;;;12.25;9.00;;;;;;;;5121873;28;11387;-83
2022/08/26 15:55:43;;;;;;;;;8.00;7.33;;;;;;;;5121318;28;21414;-83
2022/08/26 15:58:09;;;;;;;;;8.00;8.00;;;;;;;;5121538;28;21590;-82
2022/08/26 16:00:34;;;;;;;;;11.00;10.25;;;;;;;;5121320;28;8869;-81
2022/08/26 16:02:59;;;;;;;;;10.00;10.00;;;;;;;;5120751;28;22428;-82
2022/08/26 16:05:25;;;;;;;;;8.67;8.67;;;;;;;;5120762;28;11613;-79
2022/08/26 16:07:50;;;;;;;;;13.00;11.67;;;;;;;;5101702;28;25202;-80
2022/08/26 16:10:17;;;;;;;;;10.00;10.00;;;;;;;;5101656;28;22844;-81
2022/08/26 16:12:43;;;;;;;;;12.25;10.75;;;;;;;;5124750;27;11601;-82
2022/08/26 16:15:09;;;;;;;;;7.00;7.00;;;;;;;;5138370;27;11391;-82
2022/08/26 16:17:34;;;;;;;;;8.75;8.00;;;;;;;;5128693;27;22878;-83
2022/08/26 16:19:59;;;;;;;;;14.33;12.00;;;;;;;;5132388;27;11230;-82
2022/08/26 16:22:25;;;;;;;;;12.33;11.00;;;;;;;;5130382;27;23653;-82
2022/08/26 16:24:54;;;;;;;;;6.25;4.75;;;;;;;;5130305;27;8811;-83
2022/08/26 16:27:19;;;;;;;;;9.00;9.00;;;;;;;;5129072;27;22582;-83
2022/08/26 16:29:45;;;;;;;;;10.00;8.67;;;;;;;;5131435;27;11864;-83
2022/08/26 16:32:10;;;;;;;;;9.00;9.00;;;;;;;;5128949;27;21544;-82
2022/08/26 16:34:35;;;;;;;;;9.33;9.33;;;;;;;;5129680;27;21381;-83
2022/08/26 16:37:03;;;;;;;;;8.00;8.00;;;;;;;;5128780;27;8816;-83
2022/08/26 16:39:28;;;;;;;;;8.00;7.25;;;;;;;;5114053;27;13434;-84
2022/08/26 16:41:53;;;;;;;;;8.00;7.33;;;;;;;;5140560;27;8833;-86
2022/08/26 16:44:20;;;;;;;;;8.67;8.67;;;;;;;;5141245;27;8905;-87
2022/08/26 16:46:46;;;;;;;;;8.75;8.00;;;;;;;;5140852;27;10344;-79
2022/08/26 16:49:11;;;;;;;;;6.00;5.67;;;;;;;;5137352;27;8828;-81
2022/08/26 16:51:36;;;;;;;;;8.00;8.00;;;;;;;;5124513;27;11475;-81
2022/08/26 16:54:02;;;;;;;;;11.67;8.67;;;;;;;;5101899;28;13117;-80
2022/08/26 16:56:28;;;;;;;;;7.00;7.00;;;;;;;;5125102;27;22428;-84
2022/08/26 16:58:53;;;;;;;;;8.25;7.25;;;;;;;;5129735;27;21982;-80
2022/08/26 17:01:20;;;;;;;;;8.00;7.00;;;;;;;;5112443;27;12744;-84
2022/08/26 17:03:45;;;;;;;;;7.50;7.25;;;;;;;;5129631;27;8778;-87
2022/08/26 17:06:11;;;;;;;;;7.33;7.33;;;;;;;;5131517;27;12033;-86
2022/08/26 17:08:37;;;;;;;;;8.00;8.00;;;;;;;;5135193;27;9492;-83
2022/08/26 17:11:02;;;;;;;;;11.50;9.00;;;;;;;;5112575;27;11802;-78
2022/08/26 17:13:28;;;;;;;;;9.00;8.00;;;;;;;;5130051;27;22592;-75
2022/08/26 17:15:54;;;;;;;;;10.00;9.00;;;;;;;;5127956;27;21436;-77
2022/08/26 17:18:20;;;;;;;;;11.00;9.67;;;;;;;;5129308;27;22592;-78
2022/08/26 17:20:46;;;;;;;;;10.25;9.25;;;;;;;;5112110;27;12387;-80
2022/08/26 17:23:11;;;;;;;;;9.00;7.33;;;;;;;;5128752;27;11049;-79
2022/08/26 17:25:36;;;;;;;;;10.00;10.00;;;;;;;;5128706;27;21703;-78
2022/08/26 17:28:01;;;;;;;;;10.00;9.00;;;;;;;;5123815;27;22334;-75
2022/08/26 17:30:27;;;;;;;;;11.33;9.00;;;;;;;;5126863;27;16244;-75
2022/08/26 17:32:53;;;;;;;;;11.00;11.00;;;;;;;;5125357;27;9540;-77
2022/08/26 17:35:18;;;;;;;;;9.67;9.67;;;;;;;;5123732;27;22109;-77
2022/08/26 17:37:44;;;;;;;;;9.33;9.33;;;;;;;;5125880;27;22184;-76
2022/08/26 17:40:11;;;;;;;;;14.33;13.67;;;;;;;;5126612;27;8898;-74
2022/08/26 17:42:37;;;;;;;;;20.75;17.00;;;;;;;;5127385;27;22961;-77
2022/08/26 17:45:02;;;;;;;;;10.75;10.50;;;;;;;;5127390;27;13512;-77
2022/08/26 17:47:31;;;;;;;;;12.00;11.00;;;;;;;;5125647;27;13457;-77
2022/08/26 17:49:57;;;;;;;;;10.75;9.50;;;;;;;;5128875;27;11644;-76
2022/08/26 17:52:22;;;;;;;;;15.00;12.00;;;;;;;;5126910;27;21375;-78
2022/08/26 17:54:50;;;;;;;;;18.67;16.67;;;;;;;;5125937;27;22217;-78
2022/08/26 17:57:16;;;;;;;;;18.25;17.25;;;;;;;;5128144;27;11480;-77
2022/08/26 17:59:41;;;;;;;;;24.00;23.00;;;;;;;;5126784;27;10722;-77
2022/08/26 18:02:07;;;;;;;;;18.33;17.00;;;;;;;;5111370;27;15216;-70
2022/08/26 18:04:32;;;;;;;;;25.67;23.00;;;;;;;;5128455;27;12640;-72
2022/08/26 18:06:57;;;;;;;;;51.50;40.75;;;;;;;;5125467;27;12180;-72
2022/08/26 18:09:22;;;;;;;;;56.75;47.00;;;;;;;;5122968;27;13500;-72
2022/08/26 18:11:48;;;;;;;;;33.33;30.67;;;;;;;;5126002;27;11539;-72
2022/08/26 18:14:13;;;;;;;;;25.33;23.00;;;;;;;;5126168;27;13750;-72
2022/08/26 18:16:40;;;;;;;;;35.67;30.33;;;;;;;;5122655;27;13245;-73
2022/08/26 18:19:06;;;;;;;;;25.33;24.67;;;;;;;;5125849;27;13502;-73
2022/08/26 18:21:31;;;;;;;;;22.67;21.00;;;;;;;;5126173;27;13524;-72
2022/08/26 18:23:57;;;;;;;;;14.33;14.33;;;;;;;;5125851;27;11639;-73
2022/08/26 18:26:22;;;;;;;;;12.67;12.67;;;;;;;;5128105;27;13700;-73
2022/08/26 18:28:47;;;;;;;;;8.33;8.33;;;;;;;;5107166;27;11548;-73
2022/08/26 18:31:14;;;;;;;;;9.00;9.00;;;;;;;;5130041;27;22318;-73
2022/08/26 18:33:39;;;;;;;;;12.00;11.00;;;;;;;;5129122;27;11772;-72
2022/08/26 18:36:04;;;;;;;;;17.67;16.33;;;;;;;;5124403;27;22309;-72
2022/08/26 18:38:30;;;;;;;;;23.00;17.67;;;;;;;;5125391;27;11845;-72
2022/08/26 18:40:55;;;;;;;;;32.00;29.33;;;;;;;;5124436;27;13234;-72
2022/08/26 18:43:21;;;;;;;;;24.67;22.33;;;;;;;;5122999;27;13637;-73
2022/08/26 18:45:47;;;;;;;;;31.75;30.00;;;;;;;;5126145;27;12269;-72
2022/08/26 18:48:13;;;;;;;;;12.00;10.67;;;;;;;;5125599;27;13537;-73
2022/08/26 18:50:39;;;;;;;;;6.25;6.25;;;;;;;;5127779;27;13484;-73
2022/08/26 18:53:04;;;;;;;;;7.67;6.00;;;;;;;;5122596;27;23279;-73
2022/08/26 18:55:29;;;;;;;;;7.33;6.00;;;;;;;;5122949;27;11272;-76
2022/08/26 18:57:55;;;;;;;;;7.00;7.00;;;;;;;;5125260;27;8989;-73
2022/08/26 19:00:20;;;;;;;;;6.67;6.67;;;;;;;;5127783;27;9626;-73
2022/08/26 19:02:45;;;;;;;;;8.00;8.00;;;;;;;;5127595;27;11300;-76
2022/08/26 19:05:11;;;;;;;;;7.67;7.67;;;;;;;;5137020;27;12489;-72
2022/08/26 19:07:36;;;;;;;;;8.00;8.00;;;;;;;;5117559;27;12749;-73
2022/08/26 19:10:01;;;;;;;;;6.00;6.00;;;;;;;;5122689;27;11299;-73
2022/08/26 19:12:27;;;;;;;;;6.67;6.67;;;;;;;;5123676;27;8832;-72
2022/08/26 19:14:52;;;;;;;;;9.33;7.00;;;;;;;;5130239;27;9806;-72
2022/08/26 19:17:18;;;;;;;;;6.00;5.00;;;;;;;;5127296;27;11377;-73
2022/08/26 19:19:43;;;;;;;;;11.33;9.00;;;;;;;;5125321;27;10774;-72
2022/08/26 19:22:08;;;;;;;;;7.33;7.33;;;;;;;;5128305;27;21578;-72
2022/08/26 19:24:33;;;;;;;;;7.00;7.00;;;;;;;;5130171;27;22489;-73
2022/08/26 19:27:00;;;;;;;;;7.00;7.00;;;;;;;;5112959;27;10632;-73
2022/08/26 19:29:28;;;;;;;;;6.00;4.75;;;;;;;;5127282;27;8773;-73
2022/08/26 19:31:53;;;;;;;;;5.50;5.50;;;;;;;;5128385;27;11899;-73
2022/08/26 19:34:19;;;;;;;;;4.00;4.00;;;;;;;;5128915;27;11364;-70
2022/08/26 19:36:44;;;;;;;;;3.33;3.33;;;;;;;;5128553;27;11566;-72
2022/08/26 19:39:09;;;;;;;;;6.00;4.33;;;;;;;;5126775;27;11792;-70
2022/08/26 19:41:36;;;;;;;;;6.00;6.00;;;;;;;;5124838;27;10435;-71
2022/08/26 19:44:01;;;;;;;;;7.00;7.00;;;;;;;;5126925;27;8891;-71
2022/08/26 19:46:28;;;;;;;;;6.67;5.67;;;;;;;;5142070;27;8952;-71
2022/08/26 19:48:54;;;;;;;;;5.00;5.00;;;;;;;;5139231;27;11390;-71
2022/08/26 19:51:27;;;;;;;;;7.00;6.00;;;;;;;;5138901;27;11601;-77
2022/08/26 19:53:53;;;;;;;;;4.50;4.00;;;;;;;;5124046;27;11400;-77
2022/08/26 19:56:20;;;;;;;;;5.00;5.00;;;;;;;;5145548;27;10575;-75
2022/08/26 19:58:46;;;;;;;;;5.00;5.00;;;;;;;;5122520;27;11039;-73
2022/08/26 20:01:12;;;;;;;;;5.75;5.75;;;;;;;;5121476;27;8845;-74
2022/08/26 20:03:39;;;;;;;;;5.50;5.50;;;;;;;;5103403;28;10617;-74
2022/08/26 20:06:05;;;;;;;;;7.00;6.75;;;;;;;;5102704;28;10548;-73
2022/08/26 20:08:32;;;;;;;;;8.00;7.75;;;;;;;;5122332;27;11423;-74
2022/08/26 20:11:03;;;;;;;;;9.00;9.00;;;;;;;;5120598;27;8776;-77
2022/08/26 20:13:29;;;;;;;;;10.50;10.00;;;;;;;;5121596;28;11891;-74
2022/08/26 20:15:58;;;;;;;;;6.00;6.00;;;;;;;;5121298;28;23447;-73
2022/08/26 20:21:25;;;;;;;;;5.00;5.00;;;;;;;;5122232;27;8764;-74
2022/08/26 20:23:52;;;;;;;;;7.00;6.00;;;;;;;;5122491;28;11616;-73
2022/08/26 20:26:18;;;;;;;;;4.25;4.25;;;;;;;;5122107;27;8914;-73
2022/08/26 20:28:43;;;;;;;;;7.00;7.00;;;;;;;;5121185;27;11900;-73
2022/08/26 20:31:13;;;;;;;;;7.00;6.33;;;;;;;;5122665;27;13274;-74
2022/08/26 20:33:39;;;;;;;;;7.75;7.50;;;;;;;;5130040;27;8873;-76
2022/08/26 20:36:10;;;;;;;;;7.00;6.75;;;;;;;;5146409;27;10578;-78
2022/08/26 20:38:36;;;;;;;;;7.25;7.25;;;;;;;;5151036;27;10492;-78
2022/08/26 20:41:03;;;;;;;;;7.00;7.00;;;;;;;;5123950;27;9785;-75
2022/08/26 20:43:28;;;;;;;;;7.00;7.00;;;;;;;;5123625;27;8926;-75
2022/08/26 20:45:53;;;;;;;;;9.67;9.67;;;;;;;;5141996;27;8892;-73
2022/08/26 20:48:19;;;;;;;;;7.33;7.33;;;;;;;;5141636;27;11304;-73
2022/08/26 20:50:45;;;;;;;;;8.67;7.00;;;;;;;;5141402;27;11448;-73
2022/08/26 20:53:10;;;;;;;;;7.33;7.33;;;;;;;;5141332;27;11840;-76
2022/08/26 20:55:35;;;;;;;;;8.33;6.33;;;;;;;;5142156;27;11517;-73
2022/08/26 20:58:01;;;;;;;;;7.00;7.00;;;;;;;;5143291;27;8802;-75